Time;durP1;ratioP1;P1;durP2;ratioP2;P2;SDS_P1;SDS_P2;PMS_P1;PMS_P2;Temp;Humidity;BMP_temperature;BMP_pressure;BME280_temperature;BME280_humidity;BME280_pressure;Samples;Min_cycle;Max_cycle;Signal;HPM_P1;HPM_P2
2022/05/26 00:00:10;;;;;;;17.80;4.70;;;18.00;79.00;;;;;;5054536;28;20225;-91
2022/05/26 00:02:37;;;;;;;17.87;4.97;;;18.00;79.70;;;;;;5056256;28;20239;-91
2022/05/26 00:05:08;;;;;;;19.60;5.50;;;17.90;79.10;;;;;;5057022;28;20231;-94
2022/05/26 00:07:36;;;;;;;16.47;5.13;;;17.90;79.70;;;;;;5056743;28;20568;-90
2022/05/26 00:10:06;;;;;;;21.00;6.03;;;17.90;79.60;;;;;;5061659;28;20213;-92
2022/05/26 00:12:33;;;;;;;22.13;5.20;;;17.90;80.10;;;;;;5062546;28;20230;-91
2022/05/26 00:15:00;;;;;;;19.17;5.77;;;17.90;79.80;;;;;;5056586;28;20245;-90
2022/05/26 00:17:29;;;;;;;20.10;6.53;;;17.90;80.10;;;;;;5051594;28;20230;-90
2022/05/26 00:19:56;;;;;;;13.93;5.03;;;17.80;79.90;;;;;;5056697;28;20211;-90
2022/05/26 00:22:27;;;;;;;16.43;5.27;;;17.90;80.00;;;;;;5055264;28;20233;-89
2022/05/26 00:24:54;;;;;;;18.90;5.40;;;17.80;80.00;;;;;;5054233;28;20239;-89
2022/05/26 00:27:22;;;;;;;18.23;5.23;;;17.80;80.20;;;;;;5054567;28;20294;-90
2022/05/26 00:29:49;;;;;;;16.80;5.57;;;17.80;80.50;;;;;;5042538;28;20238;-90
2022/05/26 00:32:16;;;;;;;26.23;6.97;;;17.80;80.20;;;;;;5054537;28;20577;-91
2022/05/26 00:34:44;;;;;;;16.67;4.97;;;17.80;81.30;;;;;;5052006;28;20240;-90
2022/05/26 00:37:12;;;;;;;14.73;4.90;;;17.80;81.40;;;;;;5057654;28;20294;-90
2022/05/26 00:39:44;;;;;;;13.43;4.43;;;17.80;80.40;;;;;;5056474;28;20211;-92
2022/05/26 00:42:11;;;;;;;20.37;5.90;;;17.80;80.80;;;;;;5056181;28;20277;-86
2022/05/26 00:44:40;;;;;;;15.23;4.30;;;17.80;80.10;;;;;;5055114;28;20214;-92
2022/05/26 00:47:12;;;;;;;19.30;5.60;;;17.80;80.80;;;;;;5055685;28;20219;-90
2022/05/26 00:49:43;;;;;;;14.10;4.77;;;17.80;80.90;;;;;;5057872;28;20652;-90
2022/05/26 00:52:16;;;;;;;23.17;6.03;;;17.70;81.00;;;;;;5058496;28;20272;-90
2022/05/26 00:54:46;;;;;;;18.57;6.00;;;17.70;81.20;;;;;;5052135;28;20221;-90
2022/05/26 00:57:17;;;;;;;17.90;5.60;;;17.70;81.20;;;;;;5054003;28;20216;-88
2022/05/26 00:59:52;;;;;;;16.23;5.80;;;17.70;81.20;;;;;;5058419;28;20282;-92
2022/05/26 01:02:23;;;;;;;19.30;5.97;;;17.70;81.70;;;;;;5056252;28;20303;-88
2022/05/26 01:04:55;;;;;;;18.40;5.57;;;17.70;81.40;;;;;;5060944;28;20236;-91
2022/05/26 01:07:24;;;;;;;18.33;5.47;;;17.70;81.70;;;;;;5060878;28;20221;-89
2022/05/26 01:09:53;;;;;;;14.53;4.53;;;17.60;82.60;;;;;;5059848;28;20296;-92
2022/05/26 01:12:21;;;;;;;20.53;5.03;;;17.60;82.00;;;;;;5059571;28;20642;-93
2022/05/26 01:14:52;;;;;;;13.70;4.33;;;17.60;81.50;;;;;;5058393;28;20224;-91
2022/05/26 01:17:35;;;;;;;15.93;4.93;;;17.50;81.70;;;;;;5061200;28;20223;-88
2022/05/26 01:20:27;;;;;;;15.33;4.97;;;17.60;82.20;;;;;;5051714;28;20288;-95
2022/05/26 01:23:24;;;;;;;19.07;5.23;;;17.60;82.60;;;;;;5042370;28;20337;-91
2022/05/26 01:26:31;;;;;;;11.27;3.80;;;17.60;82.60;;;;;;5054519;28;20209;-91
2022/05/26 01:29:39;;;;;;;19.73;5.03;;;17.60;82.60;;;;;;5057502;28;20317;-91
2022/05/26 01:32:16;;;;;;;11.63;3.93;;;17.50;82.90;;;;;;5037687;28;20218;-89
2022/05/26 01:34:56;;;;;;;17.73;4.97;;;17.50;82.50;;;;;;5039708;28;20309;-92
2022/05/26 01:37:31;;;;;;;18.40;5.00;;;17.50;82.60;;;;;;5076062;28;20221;-88
2022/05/26 01:40:06;;;;;;;16.97;4.70;;;17.50;82.50;;;;;;5058470;28;20216;-90
2022/05/26 01:42:46;;;;;;;12.60;4.90;;;17.50;82.50;;;;;;5055718;28;20313;-89
2022/05/26 01:45:21;;;;;;;18.23;5.40;;;17.40;82.90;;;;;;5053408;28;20222;-91
2022/05/26 01:48:00;;;;;;;16.23;4.93;;;17.50;82.70;;;;;;5061720;28;20246;-90
2022/05/26 01:50:34;;;;;;;16.40;5.10;;;17.40;83.60;;;;;;5060070;28;20242;-90
2022/05/26 01:53:16;;;;;;;16.53;4.27;;;17.50;82.70;;;;;;5061319;28;20217;-92
2022/05/26 01:55:50;;;;;;;22.97;5.87;;;17.50;83.00;;;;;;5059875;28;20237;-94
2022/05/26 01:58:27;;;;;;;17.13;4.67;;;17.50;82.50;;;;;;5064181;28;20724;-91
2022/05/26 02:00:59;;;;;;;19.00;5.00;;;17.50;82.40;;;;;;5059877;28;20331;-89
2022/05/26 02:03:31;;;;;;;21.77;5.33;;;17.50;82.40;;;;;;5052401;28;20229;-90
2022/05/26 02:06:07;;;;;;;16.13;4.70;;;17.50;82.50;;;;;;5053540;28;20282;-91
2022/05/26 02:08:43;;;;;;;16.70;5.03;;;17.50;82.50;;;;;;5063096;28;20670;-89
2022/05/26 02:11:15;;;;;;;17.33;5.03;;;17.50;82.60;;;;;;5063648;28;20208;-92
2022/05/26 02:13:48;;;;;;;13.60;4.87;;;17.50;82.90;;;;;;5062917;28;20219;-89
2022/05/26 02:16:19;;;;;;;17.27;5.33;;;17.50;82.60;;;;;;5062494;28;20225;-90
2022/05/26 02:18:54;;;;;;;14.23;4.33;;;17.50;82.90;;;;;;5062730;28;20274;-93
2022/05/26 02:21:28;;;;;;;18.20;5.10;;;17.40;83.10;;;;;;5060832;28;20213;-89
2022/05/26 02:24:02;;;;;;;14.80;5.23;;;17.40;82.90;;;;;;5061268;28;20209;-92
2022/05/26 02:26:31;;;;;;;18.67;5.20;;;17.40;83.00;;;;;;5063849;28;20244;-91
2022/05/26 02:31:48;;;;;;;17.90;5.00;;;17.40;82.70;;;;;;5036914;28;20266;-90
2022/05/26 02:34:20;;;;;;;17.53;5.20;;;17.40;83.40;;;;;;5036533;28;20215;-89
2022/05/26 02:36:56;;;;;;;15.73;5.33;;;17.40;83.40;;;;;;5054929;28;20296;-92
2022/05/26 02:39:23;;;;;;;24.83;6.97;;;17.30;83.40;;;;;;5054478;28;20220;-90
2022/05/26 02:41:53;;;;;;;16.43;5.17;;;17.30;82.70;;;;;;5054014;28;20205;-89
2022/05/26 02:44:27;;;;;;;14.03;4.53;;;17.30;82.80;;;;;;5054929;28;20752;-86
2022/05/26 02:47:14;;;;;;;26.20;5.57;;;17.30;83.30;;;;;;5052159;28;20202;-88
2022/05/26 02:50:04;;;;;;;21.17;5.73;;;17.20;83.30;;;;;;5051289;28;20213;-89
2022/05/26 02:52:38;;;;;;;12.37;4.93;;;17.30;83.40;;;;;;5050974;28;20205;-90
2022/05/26 02:55:19;;;;;;;18.87;5.23;;;17.20;83.10;;;;;;5052897;28;20212;-88
2022/05/26 02:57:56;;;;;;;17.07;5.23;;;17.20;83.50;;;;;;5052559;28;20241;-88
2022/05/26 03:00:34;;;;;;;20.30;5.40;;;17.20;83.50;;;;;;5051311;28;20302;-91
2022/05/26 03:03:07;;;;;;;26.53;6.13;;;17.10;83.30;;;;;;5050422;28;20292;-89
2022/05/26 03:05:43;;;;;;;17.90;5.23;;;17.10;83.40;;;;;;5056521;28;20342;-93
2022/05/26 03:08:13;;;;;;;17.33;4.90;;;17.10;83.70;;;;;;5054331;28;20206;-91
2022/05/26 03:10:40;;;;;;;15.73;5.00;;;17.10;83.60;;;;;;5052736;28;20300;-88
2022/05/26 03:13:08;;;;;;;21.57;5.87;;;17.10;83.50;;;;;;5051614;28;20269;-91
2022/05/26 03:15:35;;;;;;;13.17;4.37;;;17.00;83.40;;;;;;5053901;28;20244;-91
2022/05/26 03:18:05;;;;;;;17.27;5.10;;;17.00;83.40;;;;;;5050489;28;20620;-91
2022/05/26 03:20:32;;;;;;;15.77;4.97;;;17.00;84.10;;;;;;5051436;28;20682;-88
2022/05/26 03:23:01;;;;;;;17.53;5.10;;;16.90;83.60;;;;;;5051513;28;20567;-89
2022/05/26 03:25:29;;;;;;;19.00;5.77;;;16.90;84.10;;;;;;5050106;28;20304;-89
2022/05/26 03:27:57;;;;;;;23.77;6.23;;;16.90;84.10;;;;;;5050291;28;20221;-90
2022/05/26 03:30:27;;;;;;;19.63;5.57;;;16.80;83.90;;;;;;5049584;28;20254;-87
2022/05/26 03:32:54;;;;;;;15.33;5.83;;;16.80;84.00;;;;;;5050346;28;20258;-90
2022/05/26 03:41:08;;;;;;;17.27;5.37;;;16.70;84.30;;;;;;5049961;28;20537;-92
2022/05/26 03:43:40;;;;;;;16.20;5.73;;;16.70;84.00;;;;;;5050933;28;20272;-91
2022/05/26 03:46:11;;;;;;;17.87;5.10;;;16.70;84.40;;;;;;5051281;28;20226;-87
2022/05/26 03:48:38;;;;;;;24.70;7.57;;;16.70;84.50;;;;;;5051436;28;20580;-88
2022/05/26 03:51:05;;;;;;;17.60;5.63;;;16.70;84.40;;;;;;5050840;28;20243;-89
2022/05/26 03:53:34;;;;;;;19.20;6.30;;;16.60;84.20;;;;;;5051870;28;20279;-87
2022/05/26 03:56:02;;;;;;;16.80;5.50;;;16.60;84.40;;;;;;5052972;28;20216;-88
2022/05/26 03:58:30;;;;;;;19.20;5.27;;;16.60;84.80;;;;;;5056055;28;20220;-88
2022/05/26 04:01:03;;;;;;;12.67;4.30;;;16.60;84.80;;;;;;5058223;28;20263;-95
2022/05/26 04:03:39;;;;;;;18.43;5.67;;;16.50;85.40;;;;;;5055353;28;20320;-88
2022/05/26 04:06:08;;;;;;;19.63;5.13;;;16.50;85.00;;;;;;5055290;28;20211;-89
2022/05/26 04:08:45;;;;;;;19.67;6.67;;;16.50;85.30;;;;;;5055202;28;20284;-87
2022/05/26 04:11:13;;;;;;;19.33;5.80;;;16.50;86.10;;;;;;5036999;28;20220;-89
2022/05/26 04:13:40;;;;;;;11.37;4.00;;;16.50;85.10;;;;;;5055782;28;20242;-88
2022/05/26 04:16:09;;;;;;;18.67;5.40;;;16.40;85.00;;;;;;5058239;28;20223;-92
2022/05/26 04:18:37;;;;;;;16.30;5.53;;;16.40;85.70;;;;;;5040026;28;20214;-88
2022/05/26 04:21:07;;;;;;;15.80;5.20;;;16.40;85.40;;;;;;5041464;28;20238;-92
2022/05/26 04:23:39;;;;;;;20.67;6.10;;;16.40;86.00;;;;;;5056680;28;20236;-87
2022/05/26 04:26:09;;;;;;;20.33;6.37;;;16.30;86.20;;;;;;5057165;28;20216;-89
2022/05/26 04:28:37;;;;;;;23.30;5.60;;;16.40;86.20;;;;;;5055987;28;20244;-89
2022/05/26 04:31:06;;;;;;;22.73;5.17;;;16.30;86.10;;;;;;5056421;28;20298;-90
2022/05/26 04:33:34;;;;;;;14.80;5.43;;;16.30;86.40;;;;;;5055439;28;20230;-90
2022/05/26 04:36:03;;;;;;;24.00;5.53;;;16.30;86.20;;;;;;5054701;28;20197;-89
2022/05/26 04:38:32;;;;;;;17.37;5.90;;;16.30;86.40;;;;;;5055649;28;20244;-89
2022/05/26 04:41:04;;;;;;;23.57;6.53;;;16.30;86.50;;;;;;5054874;28;20302;-92
2022/05/26 04:43:33;;;;;;;21.37;5.50;;;16.30;86.60;;;;;;5055547;28;20236;-92
2022/05/26 04:46:01;;;;;;;16.50;5.13;;;16.30;86.90;;;;;;5053057;28;20671;-89
2022/05/26 04:48:29;;;;;;;13.00;4.73;;;16.30;86.50;;;;;;5053823;28;20220;-89
2022/05/26 04:50:56;;;;;;;19.00;4.50;;;16.30;86.50;;;;;;5056157;28;20317;-87
2022/05/26 04:53:26;;;;;;;15.57;5.43;;;16.30;86.50;;;;;;5052882;28;20284;-88
2022/05/26 04:55:55;;;;;;;15.70;5.00;;;16.30;87.30;;;;;;5055325;28;20688;-93
2022/05/26 04:58:24;;;;;;;22.23;6.63;;;16.20;87.80;;;;;;5053332;28;20995;-89
2022/05/26 05:00:53;;;;;;;18.63;6.03;;;16.30;87.70;;;;;;5049834;28;20657;-89
2022/05/26 05:03:23;;;;;;;17.63;5.20;;;16.30;87.50;;;;;;5051619;28;20242;-89
2022/05/26 05:05:50;;;;;;;16.63;5.50;;;16.30;87.50;;;;;;5049676;28;20210;-88
2022/05/26 05:08:17;;;;;;;17.00;5.60;;;16.30;87.10;;;;;;5052300;28;20230;-87
2022/05/26 05:10:44;;;;;;;14.23;4.57;;;16.30;87.30;;;;;;5055107;28;20873;-88
2022/05/26 05:13:11;;;;;;;16.00;5.47;;;16.30;87.20;;;;;;5054733;28;20290;-90
2022/05/26 05:15:47;;;;;;;15.63;4.67;;;16.30;87.40;;;;;;5054784;28;20251;-89
2022/05/26 05:18:15;;;;;;;14.00;4.70;;;16.30;88.10;;;;;;5055574;28;20212;-88
2022/05/26 05:20:43;;;;;;;15.47;4.90;;;16.30;87.70;;;;;;5056347;28;20227;-89
2022/05/26 05:23:13;;;;;;;16.10;4.83;;;16.40;87.50;;;;;;5053992;28;20343;-89
2022/05/26 05:25:44;;;;;;;19.20;5.27;;;16.40;88.00;;;;;;5051331;28;20237;-89
2022/05/26 05:28:17;;;;;;;19.53;5.20;;;16.40;88.00;;;;;;5033175;28;20250;-87
2022/05/26 05:30:50;;;;;;;14.97;4.57;;;16.40;87.90;;;;;;5038942;28;20205;-91
2022/05/26 05:33:24;;;;;;;15.53;5.27;;;16.40;88.00;;;;;;5053323;28;20331;-88
2022/05/26 05:35:54;;;;;;;18.03;6.10;;;16.40;88.70;;;;;;5052393;28;21208;-89
2022/05/26 05:38:21;;;;;;;17.77;5.17;;;16.40;88.10;;;;;;5053508;28;20223;-90
2022/05/26 05:40:50;;;;;;;14.13;4.43;;;16.40;88.00;;;;;;5053142;28;20700;-92
2022/05/26 05:43:17;;;;;;;18.70;5.43;;;16.40;88.30;;;;;;5053677;28;20227;-88
2022/05/26 05:45:45;;;;;;;21.53;4.97;;;16.50;88.30;;;;;;5050242;28;20652;-89
2022/05/26 05:48:14;;;;;;;14.40;5.03;;;16.50;88.20;;;;;;5055053;28;20228;-91
2022/05/26 05:50:42;;;;;;;20.53;6.40;;;16.50;88.80;;;;;;5050616;28;20267;-90
2022/05/26 05:53:10;;;;;;;18.73;6.17;;;16.60;89.00;;;;;;5053386;28;20252;-91
2022/05/26 05:55:38;;;;;;;19.27;5.87;;;16.60;88.80;;;;;;5054724;28;20211;-89
2022/05/26 05:58:09;;;;;;;19.67;7.00;;;16.60;89.30;;;;;;5052523;28;20218;-92
2022/05/26 06:00:39;;;;;;;17.77;6.10;;;16.70;89.30;;;;;;5044031;28;20303;-92
2022/05/26 06:03:07;;;;;;;20.00;6.67;;;16.70;89.40;;;;;;5053164;28;20227;-89
2022/05/26 06:05:35;;;;;;;21.43;6.83;;;16.70;89.40;;;;;;5052214;28;20232;-88
2022/05/26 06:08:04;;;;;;;18.87;6.17;;;16.70;89.70;;;;;;5053165;28;20216;-89
2022/05/26 06:10:32;;;;;;;25.67;8.07;;;16.70;90.10;;;;;;5050868;28;20262;-90
2022/05/26 06:13:00;;;;;;;20.23;7.33;;;16.80;90.00;;;;;;5043349;28;20211;-89
2022/05/26 06:15:27;;;;;;;18.20;5.93;;;16.90;90.00;;;;;;5040529;28;20218;-87
2022/05/26 06:17:54;;;;;;;18.83;6.20;;;16.90;90.20;;;;;;5041697;28;20277;-89
2022/05/26 06:20:22;;;;;;;28.57;7.70;;;16.90;89.80;;;;;;5042017;28;20224;-89
2022/05/26 06:22:49;;;;;;;17.13;6.27;;;17.00;90.10;;;;;;5040023;28;20287;-90
2022/05/26 06:25:20;;;;;;;30.03;9.40;;;17.00;89.90;;;;;;5038174;28;20291;-89
2022/05/26 06:30:33;;;;;;;21.47;6.00;;;17.10;90.00;;;;;;5038376;28;20952;-91
2022/05/26 06:38:32;;;;;;;23.13;8.27;;;17.20;89.70;;;;;;5038604;28;20221;-90
2022/05/26 06:42:05;;;;;;;21.90;6.47;;;17.30;90.00;;;;;;5049462;28;20214;-89
2022/05/26 06:43:49;;;;;;;19.73;5.90;;;17.30;89.30;;;;;;5044641;28;20709;-89
2022/05/26 06:46:18;;;;;;;16.47;6.23;;;17.40;89.10;;;;;;5049436;28;20220;-90
2022/05/26 06:48:45;;;;;;;18.60;6.87;;;17.40;89.30;;;;;;5047509;28;21025;-91
2022/05/26 06:51:13;;;;;;;28.07;9.50;;;17.50;88.90;;;;;;5047544;28;20241;-89
2022/05/26 06:53:40;;;;;;;22.20;8.03;;;17.50;88.70;;;;;;5049238;28;20206;-88
2022/05/26 06:56:10;;;;;;;18.47;7.73;;;17.60;88.70;;;;;;5050820;28;20749;-90
2022/05/26 06:58:37;;;;;;;16.23;7.10;;;17.60;88.50;;;;;;5054580;28;20281;-91
2022/05/26 07:01:04;;;;;;;16.43;7.37;;;17.70;88.40;;;;;;5056935;28;20304;-89
2022/05/26 07:03:31;;;;;;;26.47;8.77;;;17.80;88.10;;;;;;5049841;28;20335;-89
2022/05/26 07:05:58;;;;;;;38.03;13.77;;;17.80;87.60;;;;;;5048590;28;20250;-88
2022/05/26 07:08:26;;;;;;;18.07;9.37;;;17.90;87.50;;;;;;5046696;28;20570;-88
2022/05/26 07:10:54;;;;;;;20.47;10.20;;;18.00;86.80;;;;;;5048766;28;20215;-90
2022/05/26 07:13:24;;;;;;;22.97;10.30;;;18.00;87.10;;;;;;5043522;28;20310;-88
2022/05/26 07:15:51;;;;;;;20.97;9.93;;;18.10;86.10;;;;;;5049174;28;20217;-91
2022/05/26 07:18:17;;;;;;;30.00;11.60;;;18.20;85.90;;;;;;5049357;28;20302;-88
2022/05/26 07:20:44;;;;;;;24.63;11.53;;;18.20;85.90;;;;;;5049394;28;20250;-90
2022/05/26 07:23:11;;;;;;;22.30;10.80;;;18.30;86.00;;;;;;5049216;28;20253;-89
2022/05/26 07:25:40;;;;;;;23.77;10.47;;;18.30;85.00;;;;;;5049098;28;20250;-88
2022/05/26 07:28:08;;;;;;;18.33;10.17;;;18.30;85.20;;;;;;5049585;28;20226;-90
2022/05/26 07:30:37;;;;;;;24.67;11.30;;;18.40;85.50;;;;;;5047145;28;20306;-88
2022/05/26 07:33:04;;;;;;;19.77;9.70;;;18.50;84.90;;;;;;5048833;28;20217;-88
2022/05/26 07:35:31;;;;;;;20.17;9.87;;;18.50;84.80;;;;;;5049861;28;20963;-88
2022/05/26 07:43:30;;;;;;;24.43;10.03;;;18.80;84.10;;;;;;5049532;28;20273;-87
2022/05/26 07:45:59;;;;;;;19.53;9.53;;;18.80;83.70;;;;;;5044145;28;20241;-89
2022/05/26 07:48:26;;;;;;;19.93;10.33;;;18.90;82.90;;;;;;5030991;28;20209;-91
2022/05/26 07:50:53;;;;;;;22.37;11.60;;;19.00;83.50;;;;;;5030438;28;20220;-91
2022/05/26 07:53:20;;;;;;;16.67;11.77;;;19.00;82.70;;;;;;5031073;28;20303;-90
2022/05/26 07:55:48;;;;;;;22.00;11.50;;;19.10;82.40;;;;;;5032546;28;20247;-89
2022/05/26 07:58:15;;;;;;;19.67;13.00;;;19.10;81.80;;;;;;5043360;28;20232;-90
2022/05/26 08:00:42;;;;;;;20.70;14.00;;;19.20;81.70;;;;;;5047968;28;20219;-87
2022/05/26 08:03:10;;;;;;;20.17;13.93;;;19.30;80.40;;;;;;5049153;28;20283;-89
2022/05/26 08:05:38;;;;;;;19.63;12.20;;;19.30;80.10;;;;;;5048301;28;20242;-89
2022/05/26 08:08:05;;;;;;;20.83;13.27;;;19.40;80.20;;;;;;5049377;28;20208;-89
2022/05/26 08:10:32;;;;;;;19.60;14.03;;;19.40;80.00;;;;;;5048990;28;20212;-90
2022/05/26 08:13:00;;;;;;;19.37;12.40;;;19.40;79.10;;;;;;5049253;28;20218;-93
2022/05/26 08:15:27;;;;;;;17.90;11.70;;;19.50;78.40;;;;;;5045424;28;20661;-91
2022/05/26 08:17:53;;;;;;;18.27;10.67;;;19.60;78.20;;;;;;5048684;28;20326;-90
2022/05/26 08:20:22;;;;;;;20.60;10.97;;;19.60;78.50;;;;;;5048306;28;20216;-88
2022/05/26 08:22:49;;;;;;;15.67;10.17;;;19.60;78.20;;;;;;5048333;28;20645;-88
2022/05/26 08:25:16;;;;;;;15.13;9.33;;;19.60;78.40;;;;;;5049470;28;20782;-95
2022/05/26 08:27:43;;;;;;;13.53;8.80;;;19.60;78.90;;;;;;5048762;28;20210;-89
2022/05/26 08:30:11;;;;;;;11.23;7.90;;;19.70;79.70;;;;;;5051408;28;20711;-96
2022/05/26 08:32:38;;;;;;;14.10;7.50;;;19.70;78.20;;;;;;5049390;28;20212;-88
2022/05/26 08:35:09;;;;;;;19.63;7.17;;;19.80;77.70;;;;;;5047765;28;20218;-89
2022/05/26 08:37:37;;;;;;;18.20;8.13;;;19.80;76.70;;;;;;5048876;28;20326;-87
2022/05/26 08:40:08;;;;;;;11.67;5.80;;;19.90;76.90;;;;;;5046089;28;20207;-94
2022/05/26 08:42:37;;;;;;;11.70;5.67;;;19.90;76.60;;;;;;5055482;28;20208;-87
2022/05/26 08:45:08;;;;;;;13.37;6.53;;;20.00;76.20;;;;;;5051540;28;20222;-89
2022/05/26 08:47:40;;;;;;;15.00;6.47;;;20.10;75.10;;;;;;5051482;28;20215;-90
2022/05/26 08:50:11;;;;;;;15.10;6.20;;;20.10;74.20;;;;;;5052201;28;21063;-91
2022/05/26 08:52:46;;;;;;;14.73;6.33;;;20.10;73.80;;;;;;5052660;28;20196;-89
2022/05/26 08:55:16;;;;;;;11.47;6.00;;;20.20;73.60;;;;;;5052876;28;20671;-89
2022/05/26 08:57:50;;;;;;;9.63;5.00;;;20.30;74.20;;;;;;5052733;28;20225;-91
2022/05/26 09:00:24;;;;;;;11.17;5.90;;;20.30;73.70;;;;;;5052256;28;20219;-91
2022/05/26 09:02:54;;;;;;;10.70;4.47;;;20.30;73.80;;;;;;5052027;28;20212;-90
2022/05/26 09:05:22;;;;;;;14.60;6.20;;;20.30;72.70;;;;;;5051518;28;20319;-89
2022/05/26 09:13:35;;;;;;;10.10;5.00;;;20.50;71.40;;;;;;5049305;28;20852;-89
2022/05/26 09:16:04;;;;;;;12.37;5.20;;;20.50;72.20;;;;;;5051735;28;20212;-89
2022/05/26 09:18:31;;;;;;;9.47;4.37;;;20.50;72.10;;;;;;5051459;28;20223;-90
2022/05/26 09:21:13;;;;;;;10.13;5.07;;;20.60;72.20;;;;;;5051933;28;20269;-88
2022/05/26 09:23:44;;;;;;;12.97;5.07;;;20.60;70.70;;;;;;5052964;28;20219;-90
2022/05/26 09:26:16;;;;;;;16.23;5.67;;;20.60;71.10;;;;;;5050650;28;20685;-88
2022/05/26 09:28:46;;;;;;;11.93;4.50;;;20.70;71.60;;;;;;5048211;28;20730;-88
2022/05/26 09:31:31;;;;;;;10.93;4.43;;;20.70;71.00;;;;;;5051576;28;20220;-89
2022/05/26 09:34:04;;;;;;;10.77;4.53;;;20.80;70.40;;;;;;5051184;28;20217;-89
2022/05/26 09:36:36;;;;;;;9.83;3.93;;;20.90;70.70;;;;;;5050629;28;20282;-90
2022/05/26 09:39:07;;;;;;;9.90;3.53;;;21.00;70.70;;;;;;5051902;28;20231;-89
2022/05/26 09:41:39;;;;;;;11.47;3.77;;;21.00;70.80;;;;;;5051218;28;20227;-90
2022/05/26 09:44:29;;;;;;;20.00;6.40;;;21.10;70.00;;;;;;5050073;28;20597;-90
2022/05/26 09:47:00;;;;;;;10.63;4.07;;;21.20;69.30;;;;;;5050870;28;20292;-90
2022/05/26 09:49:32;;;;;;;12.53;4.47;;;21.30;70.20;;;;;;5051195;28;20217;-90
2022/05/26 09:52:17;;;;;;;9.50;3.90;;;21.40;69.90;;;;;;5049444;28;20740;-90
2022/05/26 09:54:47;;;;;;;13.43;3.90;;;21.40;70.10;;;;;;5050329;28;20210;-89
2022/05/26 09:57:19;;;;;;;9.93;4.37;;;21.60;70.40;;;;;;5051017;28;20215;-89
2022/05/26 09:59:46;;;;;;;13.27;4.87;;;21.70;70.40;;;;;;5051253;28;20315;-90
2022/05/26 10:02:19;;;;;;;17.00;6.00;;;21.80;69.40;;;;;;5052683;28;20219;-89
2022/05/26 10:05:02;;;;;;;11.70;3.87;;;21.90;68.50;;;;;;5053552;28;20232;-90
2022/05/26 10:07:51;;;;;;;10.07;4.57;;;22.00;66.90;;;;;;5052227;28;20558;-90
2022/05/26 10:10:25;;;;;;;8.67;4.03;;;22.20;66.50;;;;;;5049339;28;20211;-91
2022/05/26 10:13:29;;;;;;;8.33;3.97;;;22.30;65.40;;;;;;5049515;28;20850;-90
2022/05/26 10:16:05;;;;;;;9.77;3.97;;;22.50;64.80;;;;;;5024720;28;20287;-92
2022/05/26 10:19:04;;;;;;;8.50;3.80;;;22.50;64.60;;;;;;5030897;28;20213;-89
2022/05/26 10:21:46;;;;;;;10.97;3.47;;;22.70;64.00;;;;;;5035634;28;20298;-87
2022/05/26 10:24:33;;;;;;;9.37;3.97;;;22.70;63.10;;;;;;5043067;28;20227;-89
2022/05/26 10:27:10;;;;;;;11.03;4.80;;;22.70;62.90;;;;;;5051161;28;20639;-90
2022/05/26 10:30:02;;;;;;;14.97;4.90;;;22.90;63.10;;;;;;5050489;28;20312;-89
2022/05/26 10:32:40;;;;;;;9.03;4.33;;;22.80;62.80;;;;;;5050414;28;20295;-89
2022/05/26 10:35:18;;;;;;;7.17;3.03;;;22.80;63.70;;;;;;5050181;28;20233;-89
2022/05/26 10:38:02;;;;;;;9.50;4.33;;;22.80;62.50;;;;;;5049535;28;20265;-89
2022/05/26 10:40:41;;;;;;;11.97;4.47;;;22.80;61.20;;;;;;5050655;28;20294;-90
2022/05/26 10:43:14;;;;;;;9.33;3.83;;;22.80;61.80;;;;;;5046377;28;20311;-92
2022/05/26 10:45:44;;;;;;;15.07;4.67;;;22.80;63.00;;;;;;5050111;28;20326;-90
2022/05/26 10:48:21;;;;;;;9.97;3.63;;;22.80;63.60;;;;;;5047385;28;20307;-89
2022/05/26 10:50:51;;;;;;;10.23;4.60;;;22.90;62.00;;;;;;5049636;28;20334;-89
2022/05/26 10:53:29;;;;;;;10.83;4.07;;;22.90;62.30;;;;;;5049892;28;20306;-91
2022/05/26 10:56:06;;;;;;;13.53;3.93;;;22.90;61.80;;;;;;5049424;28;20277;-89
2022/05/26 10:58:40;;;;;;;9.03;3.47;;;22.90;63.60;;;;;;5049275;28;20238;-91
2022/05/26 11:01:15;;;;;;;8.77;3.90;;;22.90;62.60;;;;;;5049607;28;20233;-88
2022/05/26 11:03:46;;;;;;;13.77;4.77;;;22.90;62.20;;;;;;5047152;28;20227;-88
2022/05/26 11:06:22;;;;;;;10.13;3.80;;;22.90;63.10;;;;;;5050329;28;20235;-89
2022/05/26 11:08:54;;;;;;;10.93;4.00;;;23.00;61.70;;;;;;5050087;28;20313;-91
2022/05/26 11:11:28;;;;;;;8.00;3.33;;;23.00;62.00;;;;;;5055455;28;20218;-90
2022/05/26 11:14:03;;;;;;;11.73;5.03;;;23.10;61.80;;;;;;5053276;28;20205;-92
2022/05/26 11:19:34;;;;;;;12.37;3.97;;;23.10;61.40;;;;;;5048892;28;20268;-87
2022/05/26 11:22:04;;;;;;;13.13;3.93;;;23.30;61.80;;;;;;5048616;28;20286;-88
2022/05/26 11:24:33;;;;;;;8.17;3.37;;;23.40;62.30;;;;;;5049760;28;20211;-88
2022/05/26 11:27:06;;;;;;;9.77;3.57;;;23.40;61.60;;;;;;5047958;28;20212;-90
2022/05/26 11:29:38;;;;;;;8.57;3.27;;;23.50;60.20;;;;;;5050251;28;20277;-88
2022/05/26 11:38:00;;;;;;;12.93;4.27;;;23.60;59.70;;;;;;5030977;28;20300;-91
2022/05/26 11:40:36;;;;;;;5.73;2.70;;;23.70;59.20;;;;;;5043238;28;20210;-88
2022/05/26 11:43:07;;;;;;;9.83;3.93;;;23.70;59.20;;;;;;5049555;28;20306;-90
2022/05/26 11:45:48;;;;;;;9.43;3.60;;;23.70;58.80;;;;;;5049477;28;20231;-90
2022/05/26 11:48:46;;;;;;;12.17;4.13;;;23.80;59.10;;;;;;5049176;28;20220;-88
2022/05/26 11:51:30;;;;;;;10.47;4.00;;;23.80;58.80;;;;;;5048954;28;20668;-88
2022/05/26 11:53:57;;;;;;;15.23;4.70;;;23.80;58.50;;;;;;5048523;28;20706;-88
2022/05/26 11:56:44;;;;;;;9.70;3.87;;;23.80;59.30;;;;;;5047909;28;20694;-88
2022/05/26 11:59:45;;;;;;;9.90;3.50;;;23.80;58.10;;;;;;5048224;28;20302;-88
2022/05/26 12:02:28;;;;;;;11.47;4.20;;;23.80;58.70;;;;;;5048619;28;20217;-88
2022/05/26 12:04:55;;;;;;;7.83;3.33;;;23.90;58.10;;;;;;5047312;28;20684;-88
2022/05/26 12:07:40;;;;;;;9.93;3.37;;;23.90;58.70;;;;;;5049180;28;20294;-87
2022/05/26 12:10:25;;;;;;;8.60;3.80;;;24.00;58.30;;;;;;5051470;28;20274;-87
2022/05/26 12:13:21;;;;;;;11.83;4.40;;;24.00;56.60;;;;;;5045936;28;20306;-90
2022/05/26 12:16:11;;;;;;;8.27;2.63;;;24.00;57.30;;;;;;5031082;28;20212;-90
2022/05/26 12:18:49;;;;;;;10.37;3.80;;;23.90;57.90;;;;;;5033152;28;20680;-89
2022/05/26 12:21:19;;;;;;;9.67;3.10;;;24.00;58.60;;;;;;5052405;28;20211;-89
2022/05/26 12:23:46;;;;;;;11.03;3.87;;;24.00;58.40;;;;;;5052500;28;20208;-90
2022/05/26 12:26:46;;;;;;;9.87;3.27;;;24.10;58.40;;;;;;5052302;28;20232;-89
2022/05/26 12:30:02;;;;;;;9.67;3.10;;;24.10;56.30;;;;;;5047137;28;20258;-90
2022/05/26 12:32:32;;;;;;;9.77;3.83;;;24.20;56.70;;;;;;5052422;28;20211;-89
2022/05/26 12:35:10;;;;;;;5.43;2.70;;;24.20;56.80;;;;;;5052427;28;20295;-87
2022/05/26 12:37:53;;;;;;;8.57;2.80;;;24.30;56.90;;;;;;5052413;28;20287;-89
2022/05/26 12:40:41;;;;;;;12.27;3.70;;;24.40;57.10;;;;;;5052818;28;20757;-88
2022/05/26 12:43:44;;;;;;;9.83;3.53;;;24.40;56.50;;;;;;5050989;28;20249;-89
2022/05/26 12:46:37;;;;;;;10.13;3.67;;;24.50;57.00;;;;;;5051430;28;20242;-87
2022/05/26 12:49:19;;;;;;;10.27;3.60;;;24.60;57.10;;;;;;5052284;28;20261;-88
2022/05/26 12:52:05;;;;;;;5.40;2.37;;;24.60;56.60;;;;;;5052252;28;20314;-88
2022/05/26 12:54:40;;;;;;;8.17;2.40;;;24.70;56.70;;;;;;5052036;28;20335;-90
2022/05/26 12:57:10;;;;;;;8.30;2.90;;;24.80;57.30;;;;;;5051663;28;20207;-88
2022/05/26 12:59:37;;;;;;;9.00;3.67;;;24.90;56.90;;;;;;5051304;28;20240;-89
2022/05/26 13:02:05;;;;;;;11.67;4.00;;;24.90;57.00;;;;;;5052115;28;20299;-89
2022/05/26 13:04:36;;;;;;;10.10;3.20;;;25.00;56.10;;;;;;5053535;28;20271;-89
2022/05/26 13:07:07;;;;;;;10.63;3.47;;;25.00;56.10;;;;;;5050098;28;20803;-89
2022/05/26 13:09:40;;;;;;;8.17;2.80;;;25.10;56.20;;;;;;5052002;28;20744;-87
2022/05/26 13:12:08;;;;;;;11.57;4.40;;;25.10;55.90;;;;;;5052200;28;20283;-89
2022/05/26 13:14:39;;;;;;;7.73;3.07;;;25.10;55.40;;;;;;5053784;28;20220;-89
2022/05/26 13:17:13;;;;;;;8.60;3.20;;;25.10;55.60;;;;;;5052515;28;20288;-88
2022/05/26 13:19:43;;;;;;;7.50;3.10;;;25.10;55.80;;;;;;5053322;28;20192;-92
2022/05/26 13:22:15;;;;;;;9.53;3.33;;;25.10;55.30;;;;;;5051336;28;20214;-93
2022/05/26 13:24:51;;;;;;;9.10;2.97;;;25.00;54.50;;;;;;5052101;28;20808;-90
2022/05/26 13:27:18;;;;;;;7.97;3.60;;;24.90;54.50;;;;;;5051594;28;20231;-90
2022/05/26 13:29:50;;;;;;;6.43;2.47;;;24.90;55.50;;;;;;5053824;28;20208;-89
2022/05/26 13:35:16;;;;;;;7.90;3.03;;;24.80;54.80;;;;;;5052514;28;20199;-91
2022/05/26 13:37:45;;;;;;;9.83;3.00;;;24.70;54.60;;;;;;5031851;28;20206;-89
2022/05/26 13:40:18;;;;;;;12.23;3.77;;;24.70;55.00;;;;;;5032146;28;20284;-90
2022/05/26 13:42:47;;;;;;;8.07;3.00;;;24.60;55.00;;;;;;5031872;28;20276;-89
2022/05/26 13:45:24;;;;;;;9.53;3.30;;;24.60;56.00;;;;;;5044602;28;20226;-88